createdAt,value
2023-03-29T00:01:43.342Z,3.57
2023-03-29T00:04:10.577Z,3.57
2023-03-29T00:06:37.955Z,3.59
2023-03-29T00:09:09.720Z,3.61
2023-03-29T00:11:36.731Z,3.58
2023-03-29T00:14:03.629Z,3.59
2023-03-29T00:16:31.075Z,3.59
2023-03-29T00:18:58.267Z,3.57
2023-03-29T00:21:25.569Z,3.55
2023-03-29T00:23:52.556Z,3.55
2023-03-29T00:26:19.483Z,3.56
2023-03-29T00:28:47.070Z,3.58
2023-03-29T00:31:15.451Z,3.58
2023-03-29T00:33:42.938Z,3.58
2023-03-29T00:36:10.989Z,3.59
2023-03-29T00:38:39.067Z,3.59
2023-03-29T00:41:08.468Z,3.58
2023-03-29T00:43:55.957Z,3.61
2023-03-29T00:46:23.568Z,3.61
2023-03-29T00:48:52.174Z,3.65
2023-03-29T00:51:19.094Z,3.67
2023-03-29T00:53:48.883Z,3.71
2023-03-29T00:56:37.276Z,3.74
2023-03-29T00:59:07.191Z,3.75
2023-03-29T01:01:45.657Z,3.78
2023-03-29T01:04:26.100Z,3.78
2023-03-29T01:06:59.392Z,3.80
2023-03-29T01:09:27.253Z,3.82
2023-03-29T01:11:55.844Z,3.87
2023-03-29T01:14:34.571Z,3.89
2023-03-29T01:17:02.158Z,3.91
2023-03-29T01:19:32.062Z,3.94
2023-03-29T01:22:18.347Z,3.96
2023-03-29T01:25:03.399Z,3.98
2023-03-29T01:27:50.055Z,4.02
2023-03-29T01:30:22.232Z,4.02
2023-03-29T01:33:03.251Z,4.02
2023-03-29T01:35:44.786Z,4.03
2023-03-29T01:38:25.671Z,4.04
2023-03-29T01:40:52.579Z,4.03
2023-03-29T01:43:38.628Z,4.04
2023-03-29T01:46:45.855Z,4.04
2023-03-29T01:49:17.033Z,4.05
2023-03-29T01:51:46.845Z,4.05
2023-03-29T01:54:33.734Z,4.07
2023-03-29T01:57:00.722Z,4.08
2023-03-29T01:59:29.254Z,4.11
2023-03-29T02:02:01.250Z,4.13
2023-03-29T02:04:53.535Z,4.13
2023-03-29T02:07:23.133Z,4.15
2023-03-29T02:09:50.214Z,4.22
2023-03-29T02:12:17.049Z,4.24
2023-03-29T02:14:44.060Z,4.29
2023-03-29T02:17:24.068Z,4.31
2023-03-29T02:19:56.366Z,4.31
2023-03-29T02:22:25.811Z,4.31
2023-03-29T02:24:53.873Z,4.30
2023-03-29T02:27:21.388Z,4.28
2023-03-29T02:29:48.335Z,4.32
2023-03-29T02:32:55.499Z,4.36
2023-03-29T02:35:27.999Z,4.36
2023-03-29T02:37:54.986Z,4.35
2023-03-29T02:40:23.625Z,4.36
2023-03-29T02:42:50.785Z,4.36
2023-03-29T02:45:17.823Z,4.36
2023-03-29T02:47:46.788Z,4.39
2023-03-29T02:50:13.664Z,4.42
2023-03-29T02:52:43.298Z,4.42
2023-03-29T02:55:15.037Z,4.42
2023-03-29T02:57:43.558Z,4.42
2023-03-29T03:00:11.546Z,4.43
2023-03-29T03:02:38.681Z,4.43
2023-03-29T03:05:09.262Z,4.43
2023-03-29T03:07:36.450Z,4.42
2023-03-29T03:10:04.108Z,4.43
2023-03-29T03:12:31.423Z,4.46
2023-03-29T03:14:58.439Z,4.47
2023-03-29T03:17:25.355Z,4.48
2023-03-29T03:19:53.296Z,4.50
2023-03-29T03:22:20.601Z,4.55
2023-03-29T03:24:47.477Z,4.58
2023-03-29T03:27:14.334Z,4.57
2023-03-29T03:29:41.668Z,4.56
2023-03-29T03:32:44.737Z,4.56
2023-03-29T03:35:34.980Z,4.57
2023-03-29T03:38:01.934Z,4.58
2023-03-29T03:40:28.852Z,4.58
2023-03-29T03:42:56.159Z,4.61
2023-03-29T03:45:23.152Z,4.65
2023-03-29T03:47:54.460Z,4.67
2023-03-29T03:50:55.231Z,4.68
2023-03-29T03:53:22.905Z,4.69
2023-03-29T03:56:13.441Z,4.69
2023-03-29T03:59:01.159Z,4.72
2023-03-29T04:01:31.424Z,4.73
2023-03-29T04:04:14.517Z,4.74
2023-03-29T04:06:51.661Z,4.78
2023-03-29T04:09:41.008Z,4.83
2023-03-29T04:12:31.035Z,4.86
2023-03-29T04:14:58.125Z,4.88
2023-03-29T04:17:27.251Z,4.93
2023-03-29T04:19:58.201Z,4.94
2023-03-29T04:22:27.709Z,4.99
2023-03-29T04:24:54.711Z,5.04
2023-03-29T04:27:41.643Z,5.06
2023-03-29T04:30:17.035Z,5.09
2023-03-29T04:33:10.550Z,5.12
2023-03-29T04:35:40.285Z,5.16
2023-03-29T04:38:11.799Z,5.19
2023-03-29T04:40:39.833Z,5.22
2023-03-29T04:43:26.933Z,5.23
2023-03-29T04:46:00.385Z,5.26
2023-03-29T04:48:46.982Z,5.27
2023-03-29T04:51:14.425Z,5.29
2023-03-29T04:53:43.831Z,5.30
2023-03-29T04:56:11.439Z,5.32
2023-03-29T04:59:10.491Z,5.34
2023-03-29T05:01:37.904Z,5.34
2023-03-29T05:04:05.757Z,5.36
2023-03-29T05:06:38.647Z,5.37
2023-03-29T05:09:08.999Z,5.38
2023-03-29T05:11:49.902Z,5.40
2023-03-29T05:14:17.108Z,5.42
2023-03-29T05:16:44.669Z,5.45
2023-03-29T05:19:13.178Z,5.45
2023-03-29T05:21:45.646Z,5.48
2023-03-29T05:24:17.234Z,5.50
2023-03-29T05:26:52.163Z,5.54
2023-03-29T05:29:20.092Z,5.57
2023-03-29T05:31:53.202Z,5.60
2023-03-29T05:34:20.551Z,5.65
2023-03-29T05:36:52.000Z,5.68
2023-03-29T05:39:21.141Z,5.72
2023-03-29T05:41:48.317Z,5.75
2023-03-29T05:44:28.052Z,5.75
2023-03-29T05:47:02.169Z,5.78
2023-03-29T05:49:29.044Z,5.80
2023-03-29T05:52:07.655Z,5.83
2023-03-29T05:54:36.310Z,5.86
2023-03-29T05:57:05.068Z,5.90
2023-03-29T05:59:32.491Z,5.94
2023-03-29T06:02:04.979Z,5.98
2023-03-29T06:04:33.799Z,5.99
2023-03-29T06:07:19.208Z,6.00
2023-03-29T06:10:06.666Z,6.00
2023-03-29T06:12:33.629Z,6.01
2023-03-29T06:15:04.929Z,6.03
2023-03-29T06:17:52.654Z,6.05
2023-03-29T06:20:19.887Z,6.09
2023-03-29T06:22:52.677Z,6.14
2023-03-29T06:25:19.851Z,6.20
2023-03-29T06:27:49.291Z,6.26
2023-03-29T06:30:19.327Z,6.31
2023-03-29T06:32:50.614Z,6.37
2023-03-29T06:35:37.057Z,6.47
2023-03-29T06:38:08.205Z,6.58
2023-03-29T06:41:04.419Z,6.74
2023-03-29T06:43:47.820Z,6.86
2023-03-29T06:46:17.062Z,6.93
2023-03-29T06:48:55.626Z,6.94
2023-03-29T06:51:24.541Z,6.97
2023-03-29T06:53:51.540Z,6.99
2023-03-29T06:56:18.910Z,7.03
2023-03-29T06:58:48.984Z,7.05
2023-03-29T07:01:30.970Z,7.07
2023-03-29T07:04:08.181Z,7.09
2023-03-29T07:07:01.581Z,7.12
2023-03-29T07:09:31.613Z,7.18
2023-03-29T07:12:17.351Z,7.26
2023-03-29T07:14:46.625Z,7.30
2023-03-29T07:17:14.932Z,7.35
2023-03-29T07:19:42.454Z,7.40
2023-03-29T07:22:21.400Z,7.44
2023-03-29T07:24:53.432Z,7.46
2023-03-29T07:27:20.865Z,7.47
2023-03-29T07:29:50.070Z,7.48
2023-03-29T07:32:18.204Z,7.51
2023-03-29T07:34:46.315Z,7.57
2023-03-29T07:37:21.704Z,7.64
2023-03-29T07:39:48.554Z,7.72
2023-03-29T07:42:39.471Z,7.78
2023-03-29T07:45:11.339Z,7.81
2023-03-29T07:47:54.560Z,7.86
2023-03-29T07:50:21.660Z,7.90
2023-03-29T07:52:49.330Z,7.92
2023-03-29T07:55:16.583Z,7.94
2023-03-29T07:57:54.272Z,7.94
2023-03-29T08:00:22.431Z,7.96
2023-03-29T08:03:07.382Z,7.93
2023-03-29T08:05:41.268Z,7.91
2023-03-29T08:08:14.441Z,7.87
2023-03-29T08:11:01.320Z,7.82
2023-03-29T08:13:42.071Z,7.78
2023-03-29T08:16:27.915Z,7.72
2023-03-29T08:19:03.922Z,7.70
2023-03-29T08:21:48.215Z,7.64
2023-03-29T08:24:16.132Z,7.62
2023-03-29T08:26:49.454Z,7.61
2023-03-29T08:29:19.240Z,7.62
2023-03-29T08:31:46.345Z,7.63
2023-03-29T08:34:13.581Z,7.67
2023-03-29T08:37:00.769Z,7.73
2023-03-29T08:39:37.843Z,7.79
2023-03-29T08:42:43.160Z,7.85
2023-03-29T08:45:29.478Z,7.93
2023-03-29T08:48:11.171Z,8.02
2023-03-29T08:50:43.936Z,8.08
2023-03-29T08:53:18.052Z,8.15
2023-03-29T08:56:07.187Z,8.19
2023-03-29T08:58:52.434Z,8.23
2023-03-29T09:01:20.065Z,8.24
2023-03-29T09:04:00.186Z,8.26
2023-03-29T09:06:40.214Z,8.25
2023-03-29T09:09:18.980Z,8.23
2023-03-29T09:12:08.831Z,8.22
2023-03-29T09:14:48.911Z,8.19
2023-03-29T09:17:36.949Z,8.18
2023-03-29T09:20:22.868Z,8.11
2023-03-29T09:23:25.567Z,8.03
2023-03-29T09:26:24.673Z,7.89
2023-03-29T09:29:26.223Z,7.75
2023-03-29T09:31:53.531Z,7.63
2023-03-29T09:34:23.651Z,7.46
2023-03-29T09:37:04.489Z,7.29
2023-03-29T09:39:31.701Z,7.16
2023-03-29T09:42:11.998Z,7.05
2023-03-29T09:44:44.298Z,6.95
2023-03-29T09:47:19.365Z,6.89
2023-03-29T09:49:49.301Z,6.83
2023-03-29T09:52:21.021Z,6.80
2023-03-29T09:55:03.704Z,6.77
2023-03-29T09:58:07.636Z,6.72
2023-03-29T10:00:39.853Z,6.68
2023-03-29T10:03:09.291Z,6.65
2023-03-29T10:05:48.811Z,6.61
2023-03-29T10:08:22.860Z,6.55
2023-03-29T10:10:51.014Z,6.49
2023-03-29T10:13:27.104Z,6.43
2023-03-29T10:16:18.785Z,6.38
2023-03-29T10:18:47.216Z,6.34
2023-03-29T10:21:18.903Z,6.30
2023-03-29T10:23:46.128Z,6.26
2023-03-29T10:26:32.627Z,6.22
2023-03-29T10:29:01.673Z,6.19
2023-03-29T10:31:29.826Z,6.15
2023-03-29T10:33:57.513Z,6.10
2023-03-29T10:36:26.289Z,6.08
2023-03-29T10:38:53.744Z,6.04
2023-03-29T10:41:21.868Z,6.01
2023-03-29T10:43:51.103Z,5.98
2023-03-29T10:46:21.412Z,5.94
2023-03-29T10:48:55.578Z,5.92
2023-03-29T10:51:22.569Z,5.88
2023-03-29T10:53:49.375Z,5.85
2023-03-29T10:56:28.827Z,5.81
2023-03-29T10:59:23.116Z,5.79
2023-03-29T11:02:08.741Z,5.76
2023-03-29T11:05:01.080Z,5.74
2023-03-29T11:07:28.066Z,5.72
2023-03-29T11:10:28.918Z,5.71
2023-03-29T11:13:14.084Z,5.69
2023-03-29T11:16:05.895Z,5.68
2023-03-29T11:18:52.099Z,5.65
2023-03-29T11:21:46.738Z,5.64
2023-03-29T11:24:51.508Z,5.65
2023-03-29T11:27:24.333Z,5.63
2023-03-29T11:30:00.440Z,5.63
2023-03-29T11:32:33.426Z,5.63
2023-03-29T11:35:34.768Z,5.61
2023-03-29T11:38:17.391Z,5.61
2023-03-29T11:41:13.835Z,5.59
2023-03-29T11:43:54.235Z,5.56
2023-03-29T11:46:39.639Z,5.55
2023-03-29T11:49:15.540Z,5.55
2023-03-29T11:51:49.076Z,5.54
2023-03-29T11:54:30.589Z,5.54
2023-03-29T11:57:05.923Z,5.52
2023-03-29T11:59:38.068Z,5.51
2023-03-29T12:02:08.280Z,5.52
2023-03-29T12:04:41.960Z,5.52
2023-03-29T12:07:15.213Z,5.51
2023-03-29T12:09:53.913Z,5.51
2023-03-29T12:12:27.239Z,5.50
2023-03-29T12:15:20.255Z,5.51
2023-03-29T12:17:51.875Z,5.50
2023-03-29T12:20:31.521Z,5.48
2023-03-29T12:23:00.871Z,5.48
2023-03-29T12:25:31.526Z,5.49
2023-03-29T12:28:23.478Z,5.50
2023-03-29T12:31:11.958Z,5.50
2023-03-29T12:34:00.435Z,5.50
2023-03-29T12:37:10.244Z,5.48
2023-03-29T12:40:20.501Z,5.45
2023-03-29T12:43:39.794Z,5.43
2023-03-29T12:46:27.875Z,5.42
2023-03-29T12:48:57.309Z,5.42
2023-03-29T12:51:32.399Z,5.41
2023-03-29T12:54:17.162Z,5.41
2023-03-29T12:56:53.424Z,5.39
2023-03-29T12:59:46.224Z,5.39
2023-03-29T13:02:14.046Z,5.36
2023-03-29T13:04:44.054Z,5.37
2023-03-29T13:07:26.503Z,5.36
2023-03-29T13:09:54.192Z,5.34
2023-03-29T13:12:44.708Z,5.36
2023-03-29T13:15:14.774Z,5.35
2023-03-29T13:18:12.821Z,5.35
2023-03-29T13:20:47.877Z,5.34
2023-03-29T13:23:50.133Z,5.34
2023-03-29T13:26:46.605Z,5.32
2023-03-29T13:29:19.907Z,5.30
2023-03-29T13:32:03.884Z,5.30
2023-03-29T13:35:10.533Z,5.30
2023-03-29T13:37:49.028Z,5.32
2023-03-29T13:40:41.926Z,5.31
2023-03-29T13:43:11.786Z,5.32
2023-03-29T13:45:38.997Z,5.31
2023-03-29T13:48:20.187Z,5.30
2023-03-29T13:50:55.742Z,5.31
2023-03-29T13:53:29.429Z,5.28
2023-03-29T13:55:56.622Z,5.28
2023-03-29T13:58:38.200Z,5.29
2023-03-29T14:01:11.096Z,5.28
2023-03-29T14:03:44.790Z,5.29
2023-03-29T14:06:14.621Z,5.28
2023-03-29T14:08:42.138Z,5.28
2023-03-29T14:11:23.187Z,5.29
2023-03-29T14:13:57.687Z,5.28
2023-03-29T14:16:32.123Z,5.28
2023-03-29T14:18:59.942Z,5.28
2023-03-29T14:21:26.955Z,5.28
2023-03-29T14:24:01.615Z,5.31
2023-03-29T14:26:33.232Z,5.29
2023-03-29T14:29:01.431Z,5.31
2023-03-29T14:31:33.513Z,5.34
2023-03-29T14:34:01.427Z,5.34
2023-03-29T14:36:29.070Z,5.34
2023-03-29T14:38:59.486Z,5.34
2023-03-29T14:41:33.966Z,5.35
2023-03-29T14:44:01.230Z,5.36
2023-03-29T14:46:28.268Z,5.36
2023-03-29T14:48:55.893Z,5.36
2023-03-29T14:51:27.143Z,5.37
2023-03-29T14:53:54.244Z,5.36
2023-03-29T14:56:25.407Z,5.37
2023-03-29T14:58:56.683Z,5.38
2023-03-29T15:01:24.916Z,5.37
2023-03-29T15:04:04.344Z,5.34
2023-03-29T15:06:31.704Z,5.35
2023-03-29T15:09:06.031Z,5.35
2023-03-29T15:11:35.416Z,5.33
2023-03-29T15:14:08.657Z,5.34
2023-03-29T15:16:43.341Z,5.33
2023-03-29T15:19:17.355Z,5.31
2023-03-29T15:21:44.372Z,5.33
2023-03-29T15:24:22.236Z,5.34
2023-03-29T15:27:16.501Z,5.34
2023-03-29T15:29:43.762Z,5.32
2023-03-29T15:32:19.125Z,5.35
2023-03-29T15:34:46.137Z,5.32
2023-03-29T15:37:13.090Z,5.32
2023-03-29T15:39:41.883Z,5.31
2023-03-29T15:42:08.801Z,5.32
2023-03-29T15:44:36.436Z,5.30
2023-03-29T15:47:03.511Z,5.29
2023-03-29T15:49:30.746Z,5.27
2023-03-29T15:51:57.589Z,5.28
2023-03-29T15:54:24.957Z,5.28
2023-03-29T15:56:56.772Z,5.27
2023-03-29T15:59:23.837Z,5.26
2023-03-29T16:01:50.886Z,5.27
2023-03-29T16:04:19.104Z,5.28
2023-03-29T16:06:48.800Z,5.27
2023-03-29T16:09:16.462Z,5.25
2023-03-29T16:11:43.810Z,5.24
2023-03-29T16:14:21.177Z,5.24
2023-03-29T16:16:48.122Z,5.22
2023-03-29T16:19:15.544Z,5.21
2023-03-29T16:21:43.377Z,5.21
2023-03-29T16:24:14.967Z,5.20
2023-03-29T16:26:42.130Z,5.19
2023-03-29T16:29:09.476Z,5.18
2023-03-29T16:31:36.647Z,5.16
2023-03-29T16:34:04.363Z,5.16
2023-03-29T16:36:32.969Z,5.16
2023-03-29T16:39:00.128Z,5.14
2023-03-29T16:41:27.190Z,5.14
2023-03-29T16:43:54.097Z,5.12
2023-03-29T16:46:21.245Z,5.11
2023-03-29T16:48:48.976Z,5.12
2023-03-29T16:51:15.993Z,5.11
2023-03-29T16:53:43.132Z,5.11
2023-03-29T16:56:10.989Z,5.10
2023-03-29T16:58:41.443Z,5.11
2023-03-29T17:01:13.394Z,5.10
2023-03-29T17:03:40.571Z,5.08
2023-03-29T17:06:08.314Z,5.09
2023-03-29T17:08:35.397Z,5.10
2023-03-29T17:11:03.172Z,5.10
2023-03-29T17:13:30.103Z,5.11
2023-03-29T17:15:57.474Z,5.12
2023-03-29T17:18:25.242Z,5.12
2023-03-29T17:20:56.054Z,5.11
2023-03-29T17:23:23.294Z,5.11
2023-03-29T17:25:50.666Z,5.12
2023-03-29T17:28:17.580Z,5.10
2023-03-29T17:30:46.347Z,5.10
2023-03-29T17:33:14.039Z,5.09
2023-03-29T17:35:44.453Z,5.08
2023-03-29T17:38:11.962Z,5.04
2023-03-29T17:40:39.326Z,5.03
2023-03-29T17:43:06.384Z,5.02
2023-03-29T17:45:35.382Z,5.01
2023-03-29T17:48:04.741Z,5.04
2023-03-29T17:50:33.086Z,5.04
2023-03-29T17:53:00.015Z,5.03
2023-03-29T17:55:27.479Z,5.01
2023-03-29T17:57:54.502Z,5.03
2023-03-29T18:00:21.675Z,5.04
2023-03-29T18:02:48.737Z,5.03
2023-03-29T18:05:15.892Z,5.01
2023-03-29T18:07:42.759Z,5.00
2023-03-29T18:10:10.212Z,5.01
2023-03-29T18:12:37.192Z,5.00
2023-03-29T18:15:04.386Z,4.99
2023-03-29T18:17:32.928Z,5.00
2023-03-29T18:19:59.786Z,5.01
2023-03-29T18:22:26.743Z,5.02
2023-03-29T18:24:54.990Z,5.03
2023-03-29T18:27:21.975Z,5.04
2023-03-29T18:29:49.004Z,5.05
2023-03-29T18:32:16.296Z,5.05
2023-03-29T18:34:43.303Z,5.05
2023-03-29T18:37:14.635Z,5.03
2023-03-29T18:39:41.860Z,4.99
2023-03-29T18:42:11.996Z,5.01
2023-03-29T18:44:40.569Z,4.99
2023-03-29T18:47:07.781Z,4.98
2023-03-29T18:49:34.742Z,4.96
2023-03-29T18:52:02.162Z,4.91
2023-03-29T18:54:29.155Z,4.89
2023-03-29T18:56:58.696Z,4.88
2023-03-29T18:59:26.388Z,4.86
2023-03-29T19:01:53.373Z,4.85
2023-03-29T19:04:20.380Z,4.86
2023-03-29T19:06:47.644Z,4.85
2023-03-29T19:09:14.461Z,4.83
2023-03-29T19:11:41.558Z,4.82
2023-03-29T19:14:09.410Z,4.83
2023-03-29T19:16:36.508Z,4.83
2023-03-29T19:19:05.776Z,4.82
2023-03-29T19:21:33.299Z,4.83
2023-03-29T19:24:01.018Z,4.82
2023-03-29T19:26:33.296Z,4.81
2023-03-29T19:29:01.099Z,4.80
2023-03-29T19:31:27.996Z,4.79
2023-03-29T19:33:55.161Z,4.79
2023-03-29T19:36:22.296Z,4.77
2023-03-29T19:38:49.301Z,4.73
2023-03-29T19:41:16.456Z,4.71
2023-03-29T19:43:43.586Z,4.73
2023-03-29T19:46:11.784Z,4.72
2023-03-29T19:48:39.003Z,4.69
2023-03-29T19:51:05.942Z,4.66
2023-03-29T19:53:32.937Z,4.66
2023-03-29T19:56:00.103Z,4.65
2023-03-29T19:58:27.130Z,4.64
2023-03-29T20:00:58.155Z,4.65
2023-03-29T20:03:28.302Z,4.65
2023-03-29T20:05:56.559Z,4.63
2023-03-29T20:08:24.828Z,4.63
2023-03-29T20:10:58.914Z,4.64
2023-03-29T20:13:37.545Z,4.61
2023-03-29T20:16:10.512Z,4.65
2023-03-29T20:18:40.358Z,4.64
2023-03-29T20:21:07.901Z,4.62
2023-03-29T20:23:35.252Z,4.62
2023-03-29T20:26:02.190Z,4.62
2023-03-29T20:28:29.372Z,4.62
2023-03-29T20:30:56.194Z,4.61
2023-03-29T20:33:23.199Z,4.63
2023-03-29T20:35:50.154Z,4.62
2023-03-29T20:38:17.178Z,4.61
2023-03-29T20:40:45.014Z,4.61
2023-03-29T20:43:13.609Z,4.60
2023-03-29T20:45:52.198Z,4.61
2023-03-29T20:48:23.308Z,4.61
2023-03-29T20:50:50.565Z,4.61
2023-03-29T20:53:18.470Z,4.62
2023-03-29T20:55:45.873Z,4.62
2023-03-29T20:58:12.738Z,4.61
2023-03-29T21:00:40.437Z,4.59
2023-03-29T21:03:08.795Z,4.61
2023-03-29T21:05:36.045Z,4.60
2023-03-29T21:08:04.467Z,4.60
2023-03-29T21:10:31.575Z,4.61
2023-03-29T21:13:00.516Z,4.61
2023-03-29T21:15:28.740Z,4.61
2023-03-29T21:17:55.969Z,4.61
2023-03-29T21:20:24.207Z,4.63
2023-03-29T21:22:51.218Z,4.65
2023-03-29T21:25:18.572Z,4.64
2023-03-29T21:27:45.476Z,4.65
2023-03-29T21:30:12.650Z,4.65
2023-03-29T21:32:39.784Z,4.66
2023-03-29T21:35:07.349Z,4.65
2023-03-29T21:37:34.292Z,4.66
2023-03-29T21:40:05.378Z,4.68
2023-03-29T21:42:33.219Z,4.69
2023-03-29T21:45:00.121Z,4.67
2023-03-29T21:47:27.161Z,4.66
2023-03-29T21:49:54.061Z,4.66
2023-03-29T21:52:21.630Z,4.67
2023-03-29T21:54:48.526Z,4.68
2023-03-29T21:57:15.710Z,4.68
2023-03-29T21:59:42.690Z,4.70
2023-03-29T22:02:09.719Z,4.72
2023-03-29T22:04:37.672Z,4.76
2023-03-29T22:07:05.382Z,4.76
2023-03-29T22:09:33.293Z,4.73
2023-03-29T22:12:01.624Z,4.72
2023-03-29T22:14:30.339Z,4.70
2023-03-29T22:16:57.505Z,4.70
2023-03-29T22:19:24.534Z,4.68
2023-03-29T22:21:51.587Z,4.69
2023-03-29T22:24:18.666Z,4.67
2023-03-29T22:26:45.980Z,4.65
2023-03-29T22:29:12.873Z,4.64
2023-03-29T22:31:39.817Z,4.64
2023-03-29T22:34:06.921Z,4.64
2023-03-29T22:36:33.938Z,4.65
2023-03-29T22:39:01.010Z,4.65
2023-03-29T22:41:28.373Z,4.66
2023-03-29T22:43:56.628Z,4.67
2023-03-29T22:46:23.566Z,4.67
2023-03-29T22:48:51.116Z,4.66
2023-03-29T22:51:18.095Z,4.69
2023-03-29T22:53:47.161Z,4.70
2023-03-29T22:56:15.589Z,4.66
2023-03-29T22:58:42.745Z,4.68
2023-03-29T23:01:09.802Z,4.65
2023-03-29T23:03:37.030Z,4.64
2023-03-29T23:06:04.149Z,4.62
2023-03-29T23:08:32.136Z,4.60
2023-03-29T23:10:59.202Z,4.59
2023-03-29T23:13:26.435Z,4.59
2023-03-29T23:15:54.640Z,4.56
2023-03-29T23:18:23.570Z,4.58
2023-03-29T23:20:51.984Z,4.57
2023-03-29T23:23:19.704Z,4.58
2023-03-29T23:25:47.572Z,4.54
2023-03-29T23:28:15.152Z,4.57
2023-03-29T23:30:41.983Z,4.58
2023-03-29T23:33:10.862Z,4.60
2023-03-29T23:35:37.910Z,4.57
2023-03-29T23:38:05.846Z,4.56
2023-03-29T23:40:33.355Z,4.57
2023-03-29T23:43:01.532Z,4.55
2023-03-29T23:45:28.390Z,4.53
2023-03-29T23:47:55.353Z,4.54
2023-03-29T23:50:22.692Z,4.55
2023-03-29T23:52:51.600Z,4.55
2023-03-29T23:55:19.521Z,4.58
2023-03-29T23:57:46.473Z,4.60
